sensor_id;sensor_type;location;lat;lon;timestamp;temperature;humidity
2851;DHT22;1433;49.976;8.342;2023-02-28T00:01:06;-0.10;99.90
2851;DHT22;1433;49.976;8.342;2023-02-28T00:03:33;0.00;99.90
2851;DHT22;1433;49.976;8.342;2023-02-28T00:06:03;0.10;99.90
2851;DHT22;1433;49.976;8.342;2023-02-28T00:08:30;0.20;99.90
2851;DHT22;1433;49.976;8.342;2023-02-28T00:11:02;0.30;99.90
2851;DHT22;1433;49.976;8.342;2023-02-28T00:13:31;0.40;99.90
2851;DHT22;1433;49.976;8.342;2023-02-28T00:15:59;0.50;99.90
2851;DHT22;1433;49.976;8.342;2023-02-28T00:18:27;0.50;99.90
2851;DHT22;1433;49.976;8.342;2023-02-28T00:20:53;0.60;99.90
2851;DHT22;1433;49.976;8.342;2023-02-28T00:23:20;0.70;99.90
2851;DHT22;1433;49.976;8.342;2023-02-28T00:25:46;0.70;99.90
2851;DHT22;1433;49.976;8.342;2023-02-28T00:28:12;0.70;99.90
2851;DHT22;1433;49.976;8.342;2023-02-28T00:30:39;0.80;99.90
2851;DHT22;1433;49.976;8.342;2023-02-28T00:33:06;0.80;99.90
2851;DHT22;1433;49.976;8.342;2023-02-28T00:35:32;0.80;99.90
2851;DHT22;1433;49.976;8.342;2023-02-28T00:37:58;0.80;99.90
2851;DHT22;1433;49.976;8.342;2023-02-28T00:40:26;0.80;99.90
2851;DHT22;1433;49.976;8.342;2023-02-28T00:42:53;0.80;99.90
2851;DHT22;1433;49.976;8.342;2023-02-28T00:45:19;0.80;99.90
2851;DHT22;1433;49.976;8.342;2023-02-28T00:47:45;0.80;99.90
2851;DHT22;1433;49.976;8.342;2023-02-28T00:50:14;0.80;99.90
2851;DHT22;1433;49.976;8.342;2023-02-28T00:52:40;0.80;99.90
2851;DHT22;1433;49.976;8.342;2023-02-28T00:55:07;0.80;99.90
2851;DHT22;1433;49.976;8.342;2023-02-28T00:57:33;0.80;99.90
2851;DHT22;1433;49.976;8.342;2023-02-28T01:00:00;0.90;99.90
2851;DHT22;1433;49.976;8.342;2023-02-28T01:02:27;0.90;99.90
2851;DHT22;1433;49.976;8.342;2023-02-28T01:04:53;0.90;99.90
2851;DHT22;1433;49.976;8.342;2023-02-28T01:07:19;0.90;99.90
2851;DHT22;1433;49.976;8.342;2023-02-28T01:09:46;0.80;99.90
2851;DHT22;1433;49.976;8.342;2023-02-28T01:12:12;0.70;99.90
2851;DHT22;1433;49.976;8.342;2023-02-28T01:14:38;0.60;99.90
2851;DHT22;1433;49.976;8.342;2023-02-28T01:17:05;0.50;99.90
2851;DHT22;1433;49.976;8.342;2023-02-28T01:19:31;0.40;99.90
2851;DHT22;1433;49.976;8.342;2023-02-28T01:22:01;0.30;99.90
2851;DHT22;1433;49.976;8.342;2023-02-28T01:24:31;0.20;99.90
2851;DHT22;1433;49.976;8.342;2023-02-28T01:26:59;0.10;99.90
2851;DHT22;1433;49.976;8.342;2023-02-28T01:29:25;0.00;99.90
2851;DHT22;1433;49.976;8.342;2023-02-28T01:31:52;-0.10;99.90
2851;DHT22;1433;49.976;8.342;2023-02-28T01:34:18;-0.20;99.90
2851;DHT22;1433;49.976;8.342;2023-02-28T01:36:47;-0.30;99.90
2851;DHT22;1433;49.976;8.342;2023-02-28T01:39:14;-0.40;99.90
2851;DHT22;1433;49.976;8.342;2023-02-28T01:41:40;-0.50;99.90
2851;DHT22;1433;49.976;8.342;2023-02-28T01:47:13;-0.70;99.90
2851;DHT22;1433;49.976;8.342;2023-02-28T01:49:40;-0.70;99.90
2851;DHT22;1433;49.976;8.342;2023-02-28T01:52:08;-0.70;99.90
2851;DHT22;1433;49.976;8.342;2023-02-28T01:54:38;-0.70;99.90
2851;DHT22;1433;49.976;8.342;2023-02-28T01:57:10;-0.70;99.90
2851;DHT22;1433;49.976;8.342;2023-02-28T01:59:43;-0.70;99.90
2851;DHT22;1433;49.976;8.342;2023-02-28T02:02:21;-0.70;99.90
2851;DHT22;1433;49.976;8.342;2023-02-28T02:05:08;-0.70;99.90
2851;DHT22;1433;49.976;8.342;2023-02-28T02:07:43;-0.70;99.90
2851;DHT22;1433;49.976;8.342;2023-02-28T02:10:16;-0.70;99.90
2851;DHT22;1433;49.976;8.342;2023-02-28T02:18:50;-0.80;99.90
2851;DHT22;1433;49.976;8.342;2023-02-28T02:27:20;-0.90;99.90
2851;DHT22;1433;49.976;8.342;2023-02-28T02:30:28;-1.00;99.90
2851;DHT22;1433;49.976;8.342;2023-02-28T02:33:38;-1.00;99.90
2851;DHT22;1433;49.976;8.342;2023-02-28T02:36:23;-1.00;99.90
2851;DHT22;1433;49.976;8.342;2023-02-28T02:38:56;-1.10;99.90
2851;DHT22;1433;49.976;8.342;2023-02-28T02:41:47;-1.10;99.90
2851;DHT22;1433;49.976;8.342;2023-02-28T02:44:26;-1.20;99.90
2851;DHT22;1433;49.976;8.342;2023-02-28T02:47:07;-1.20;99.90
2851;DHT22;1433;49.976;8.342;2023-02-28T02:49:36;-1.20;99.90
2851;DHT22;1433;49.976;8.342;2023-02-28T02:52:06;-1.30;99.90
2851;DHT22;1433;49.976;8.342;2023-02-28T02:54:37;-1.30;99.90
2851;DHT22;1433;49.976;8.342;2023-02-28T02:57:11;-1.30;99.90
2851;DHT22;1433;49.976;8.342;2023-02-28T02:59:41;-1.40;99.90
2851;DHT22;1433;49.976;8.342;2023-02-28T03:02:11;-1.40;99.90
2851;DHT22;1433;49.976;8.342;2023-02-28T03:04:45;-1.40;99.90
2851;DHT22;1433;49.976;8.342;2023-02-28T03:07:12;-1.40;99.90
2851;DHT22;1433;49.976;8.342;2023-02-28T03:09:38;-1.40;99.90
2851;DHT22;1433;49.976;8.342;2023-02-28T03:12:09;-1.40;99.90
2851;DHT22;1433;49.976;8.342;2023-02-28T03:14:56;-1.40;99.90
2851;DHT22;1433;49.976;8.342;2023-02-28T03:20:38;-1.50;99.90
2851;DHT22;1433;49.976;8.342;2023-02-28T03:23:28;-1.50;99.90
2851;DHT22;1433;49.976;8.342;2023-02-28T03:26:02;-1.50;99.90
2851;DHT22;1433;49.976;8.342;2023-02-28T03:31:29;-1.50;99.90
2851;DHT22;1433;49.976;8.342;2023-02-28T03:34:03;-1.50;99.90
2851;DHT22;1433;49.976;8.342;2023-02-28T03:36:41;-1.50;99.90
2851;DHT22;1433;49.976;8.342;2023-02-28T03:39:17;-1.50;99.90
2851;DHT22;1433;49.976;8.342;2023-02-28T03:41:50;-1.50;99.90
2851;DHT22;1433;49.976;8.342;2023-02-28T03:44:29;-1.40;99.90
2851;DHT22;1433;49.976;8.342;2023-02-28T03:47:10;-1.50;99.90
2851;DHT22;1433;49.976;8.342;2023-02-28T03:52:25;-1.50;99.90
2851;DHT22;1433;49.976;8.342;2023-02-28T03:54:56;-1.50;99.90
2851;DHT22;1433;49.976;8.342;2023-02-28T03:57:47;-1.60;99.90
2851;DHT22;1433;49.976;8.342;2023-02-28T04:00:31;-1.60;99.90
2851;DHT22;1433;49.976;8.342;2023-02-28T04:03:00;-1.50;99.90
2851;DHT22;1433;49.976;8.342;2023-02-28T04:05:26;-1.60;99.90
2851;DHT22;1433;49.976;8.342;2023-02-28T04:07:53;-1.60;99.90
2851;DHT22;1433;49.976;8.342;2023-02-28T04:10:20;-1.60;99.90
2851;DHT22;1433;49.976;8.342;2023-02-28T04:12:46;-1.60;99.90
2851;DHT22;1433;49.976;8.342;2023-02-28T04:15:13;-1.60;99.90
2851;DHT22;1433;49.976;8.342;2023-02-28T04:17:39;-1.70;99.90
2851;DHT22;1433;49.976;8.342;2023-02-28T04:20:06;-1.60;99.90
2851;DHT22;1433;49.976;8.342;2023-02-28T04:22:35;-1.70;99.90
2851;DHT22;1433;49.976;8.342;2023-02-28T04:25:03;-1.60;99.90
2851;DHT22;1433;49.976;8.342;2023-02-28T04:27:30;-1.70;99.90
2851;DHT22;1433;49.976;8.342;2023-02-28T04:29:56;-1.60;99.90
2851;DHT22;1433;49.976;8.342;2023-02-28T04:32:23;-1.60;99.90
2851;DHT22;1433;49.976;8.342;2023-02-28T04:34:49;-1.70;99.90
2851;DHT22;1433;49.976;8.342;2023-02-28T04:37:15;-1.70;99.90
2851;DHT22;1433;49.976;8.342;2023-02-28T04:39:42;-1.70;99.90
2851;DHT22;1433;49.976;8.342;2023-02-28T04:42:09;-1.70;99.90
2851;DHT22;1433;49.976;8.342;2023-02-28T04:44:36;-1.70;99.90
2851;DHT22;1433;49.976;8.342;2023-02-28T04:47:03;-1.70;99.90
2851;DHT22;1433;49.976;8.342;2023-02-28T04:49:29;-1.70;99.90
2851;DHT22;1433;49.976;8.342;2023-02-28T04:51:55;-1.70;99.90
2851;DHT22;1433;49.976;8.342;2023-02-28T04:54:22;-1.60;99.90
2851;DHT22;1433;49.976;8.342;2023-02-28T04:56:49;-1.60;99.90
2851;DHT22;1433;49.976;8.342;2023-02-28T04:59:15;-1.60;99.90
2851;DHT22;1433;49.976;8.342;2023-02-28T05:01:47;-1.70;99.90
2851;DHT22;1433;49.976;8.342;2023-02-28T05:04:15;-1.70;99.90
2851;DHT22;1433;49.976;8.342;2023-02-28T05:06:42;-1.70;99.90
2851;DHT22;1433;49.976;8.342;2023-02-28T05:09:08;-1.80;99.90
2851;DHT22;1433;49.976;8.342;2023-02-28T05:11:36;-1.80;99.90
2851;DHT22;1433;49.976;8.342;2023-02-28T05:14:07;-1.80;99.90
2851;DHT22;1433;49.976;8.342;2023-02-28T05:16:38;-1.80;99.90
2851;DHT22;1433;49.976;8.342;2023-02-28T05:19:04;-1.70;99.90
2851;DHT22;1433;49.976;8.342;2023-02-28T05:21:39;-1.70;99.90
2851;DHT22;1433;49.976;8.342;2023-02-28T05:24:11;-1.70;99.90
2851;DHT22;1433;49.976;8.342;2023-02-28T05:26:40;-1.60;99.90
2851;DHT22;1433;49.976;8.342;2023-02-28T05:29:08;-1.60;99.90
2851;DHT22;1433;49.976;8.342;2023-02-28T05:31:36;-1.60;99.90
2851;DHT22;1433;49.976;8.342;2023-02-28T05:34:03;-1.50;99.90
2851;DHT22;1433;49.976;8.342;2023-02-28T05:36:30;-1.50;99.90
2851;DHT22;1433;49.976;8.342;2023-02-28T05:38:56;-1.50;99.90
2851;DHT22;1433;49.976;8.342;2023-02-28T05:41:22;-1.50;99.90
2851;DHT22;1433;49.976;8.342;2023-02-28T05:43:49;-1.50;99.90
2851;DHT22;1433;49.976;8.342;2023-02-28T05:46:15;-1.50;99.90
2851;DHT22;1433;49.976;8.342;2023-02-28T05:48:46;-1.60;99.90
2851;DHT22;1433;49.976;8.342;2023-02-28T05:51:13;-1.60;99.90
2851;DHT22;1433;49.976;8.342;2023-02-28T05:53:39;-1.60;99.90
2851;DHT22;1433;49.976;8.342;2023-02-28T05:56:06;-1.70;99.90
2851;DHT22;1433;49.976;8.342;2023-02-28T05:58:32;-1.70;99.90
2851;DHT22;1433;49.976;8.342;2023-02-28T06:01:19;-1.80;99.90
2851;DHT22;1433;49.976;8.342;2023-02-28T06:03:49;-1.90;99.90
2851;DHT22;1433;49.976;8.342;2023-02-28T06:06:15;-1.90;99.90
2851;DHT22;1433;49.976;8.342;2023-02-28T06:08:42;-1.90;99.90
2851;DHT22;1433;49.976;8.342;2023-02-28T06:11:09;-1.90;99.90
2851;DHT22;1433;49.976;8.342;2023-02-28T06:13:35;-1.90;99.90
2851;DHT22;1433;49.976;8.342;2023-02-28T06:16:02;-2.00;99.90
2851;DHT22;1433;49.976;8.342;2023-02-28T06:18:29;-1.90;99.90
2851;DHT22;1433;49.976;8.342;2023-02-28T06:20:55;-1.90;99.90
2851;DHT22;1433;49.976;8.342;2023-02-28T06:23:22;-1.90;99.90
2851;DHT22;1433;49.976;8.342;2023-02-28T06:25:48;-2.00;99.90
2851;DHT22;1433;49.976;8.342;2023-02-28T06:28:15;-2.00;99.90
2851;DHT22;1433;49.976;8.342;2023-02-28T06:30:42;-2.00;99.90
2851;DHT22;1433;49.976;8.342;2023-02-28T06:33:08;-1.90;99.90
2851;DHT22;1433;49.976;8.342;2023-02-28T06:35:34;-1.90;99.90
2851;DHT22;1433;49.976;8.342;2023-02-28T06:38:01;-1.90;99.90
2851;DHT22;1433;49.976;8.342;2023-02-28T06:40:27;-1.90;99.90
2851;DHT22;1433;49.976;8.342;2023-02-28T06:42:53;-1.90;99.90
2851;DHT22;1433;49.976;8.342;2023-02-28T06:45:19;-1.80;99.90
2851;DHT22;1433;49.976;8.342;2023-02-28T06:47:46;-1.70;99.90
2851;DHT22;1433;49.976;8.342;2023-02-28T06:50:14;-1.60;99.90
2851;DHT22;1433;49.976;8.342;2023-02-28T06:52:40;-1.50;99.90
2851;DHT22;1433;49.976;8.342;2023-02-28T06:55:07;-1.40;99.90
2851;DHT22;1433;49.976;8.342;2023-02-28T06:57:35;-1.30;99.90
2851;DHT22;1433;49.976;8.342;2023-02-28T07:00:08;-1.20;99.90
2851;DHT22;1433;49.976;8.342;2023-02-28T07:02:35;-1.10;99.90
2851;DHT22;1433;49.976;8.342;2023-02-28T07:05:02;-1.10;99.90
2851;DHT22;1433;49.976;8.342;2023-02-28T07:07:32;-1.00;99.90
2851;DHT22;1433;49.976;8.342;2023-02-28T07:09:59;-0.90;99.90
2851;DHT22;1433;49.976;8.342;2023-02-28T07:12:25;-0.90;99.90
2851;DHT22;1433;49.976;8.342;2023-02-28T07:14:51;-0.80;99.90
2851;DHT22;1433;49.976;8.342;2023-02-28T07:17:17;-0.70;99.90
2851;DHT22;1433;49.976;8.342;2023-02-28T07:19:44;-0.60;99.90
2851;DHT22;1433;49.976;8.342;2023-02-28T07:22:10;-0.60;99.90
2851;DHT22;1433;49.976;8.342;2023-02-28T07:24:36;-0.50;99.90
2851;DHT22;1433;49.976;8.342;2023-02-28T07:27:04;-0.40;99.90
2851;DHT22;1433;49.976;8.342;2023-02-28T07:29:30;-0.40;99.90
2851;DHT22;1433;49.976;8.342;2023-02-28T07:31:56;-0.30;99.90
2851;DHT22;1433;49.976;8.342;2023-02-28T07:34:23;-0.10;99.90
2851;DHT22;1433;49.976;8.342;2023-02-28T07:36:54;-0.10;99.90
2851;DHT22;1433;49.976;8.342;2023-02-28T07:39:21;0.00;99.90
2851;DHT22;1433;49.976;8.342;2023-02-28T07:41:48;0.10;99.90
2851;DHT22;1433;49.976;8.342;2023-02-28T07:44:14;0.10;99.90
2851;DHT22;1433;49.976;8.342;2023-02-28T07:46:45;0.30;99.90
2851;DHT22;1433;49.976;8.342;2023-02-28T07:49:14;0.30;99.90
2851;DHT22;1433;49.976;8.342;2023-02-28T07:51:40;0.40;99.90
2851;DHT22;1433;49.976;8.342;2023-02-28T07:54:07;0.50;99.90
2851;DHT22;1433;49.976;8.342;2023-02-28T07:56:33;0.60;99.90
2851;DHT22;1433;49.976;8.342;2023-02-28T07:58:59;0.70;99.90
2851;DHT22;1433;49.976;8.342;2023-02-28T08:01:27;0.70;99.90
2851;DHT22;1433;49.976;8.342;2023-02-28T08:03:53;0.80;99.90
2851;DHT22;1433;49.976;8.342;2023-02-28T08:06:23;0.90;99.90
2851;DHT22;1433;49.976;8.342;2023-02-28T08:08:50;1.00;99.90
2851;DHT22;1433;49.976;8.342;2023-02-28T08:11:17;1.10;99.90
2851;DHT22;1433;49.976;8.342;2023-02-28T08:13:45;1.20;99.90
2851;DHT22;1433;49.976;8.342;2023-02-28T08:16:15;1.20;99.90
2851;DHT22;1433;49.976;8.342;2023-02-28T08:18:43;1.40;99.90
2851;DHT22;1433;49.976;8.342;2023-02-28T08:21:10;1.40;99.90
2851;DHT22;1433;49.976;8.342;2023-02-28T08:23:37;1.40;99.90
2851;DHT22;1433;49.976;8.342;2023-02-28T08:26:04;1.40;99.90
2851;DHT22;1433;49.976;8.342;2023-02-28T08:28:30;1.30;99.90
2851;DHT22;1433;49.976;8.342;2023-02-28T08:30:57;1.40;99.90
2851;DHT22;1433;49.976;8.342;2023-02-28T08:33:25;1.30;99.90
2851;DHT22;1433;49.976;8.342;2023-02-28T08:35:54;1.40;99.90
2851;DHT22;1433;49.976;8.342;2023-02-28T08:38:22;1.40;99.90
2851;DHT22;1433;49.976;8.342;2023-02-28T08:40:49;1.50;99.90
2851;DHT22;1433;49.976;8.342;2023-02-28T08:43:15;1.60;99.90
2851;DHT22;1433;49.976;8.342;2023-02-28T08:45:42;1.70;99.90
2851;DHT22;1433;49.976;8.342;2023-02-28T08:48:08;1.70;99.90
2851;DHT22;1433;49.976;8.342;2023-02-28T08:50:34;1.80;99.90
2851;DHT22;1433;49.976;8.342;2023-02-28T08:53:00;1.90;99.90
2851;DHT22;1433;49.976;8.342;2023-02-28T08:55:32;1.90;99.90
2851;DHT22;1433;49.976;8.342;2023-02-28T08:58:03;2.00;99.90
2851;DHT22;1433;49.976;8.342;2023-02-28T09:00:29;2.00;99.90
2851;DHT22;1433;49.976;8.342;2023-02-28T09:02:55;2.00;99.90
2851;DHT22;1433;49.976;8.342;2023-02-28T09:05:24;2.10;99.90
2851;DHT22;1433;49.976;8.342;2023-02-28T09:07:51;2.10;99.90
2851;DHT22;1433;49.976;8.342;2023-02-28T09:10:17;2.10;99.90
2851;DHT22;1433;49.976;8.342;2023-02-28T09:12:43;2.00;99.90
2851;DHT22;1433;49.976;8.342;2023-02-28T09:15:11;2.10;99.90
2851;DHT22;1433;49.976;8.342;2023-02-28T09:17:37;2.20;99.90
2851;DHT22;1433;49.976;8.342;2023-02-28T09:20:05;2.20;99.90
2851;DHT22;1433;49.976;8.342;2023-02-28T09:22:32;2.20;99.90
2851;DHT22;1433;49.976;8.342;2023-02-28T09:24:58;2.30;99.90
2851;DHT22;1433;49.976;8.342;2023-02-28T09:27:24;2.30;99.90
2851;DHT22;1433;49.976;8.342;2023-02-28T09:29:51;2.40;99.90
2851;DHT22;1433;49.976;8.342;2023-02-28T09:32:17;2.50;99.90
2851;DHT22;1433;49.976;8.342;2023-02-28T09:34:44;2.60;99.90
2851;DHT22;1433;49.976;8.342;2023-02-28T09:37:10;2.80;99.90
2851;DHT22;1433;49.976;8.342;2023-02-28T09:39:36;2.80;99.90
2851;DHT22;1433;49.976;8.342;2023-02-28T09:42:05;2.80;99.90
2851;DHT22;1433;49.976;8.342;2023-02-28T09:44:39;2.90;99.90
2851;DHT22;1433;49.976;8.342;2023-02-28T09:49:51;3.20;99.90
2851;DHT22;1433;49.976;8.342;2023-02-28T09:52:24;3.30;99.90
2851;DHT22;1433;49.976;8.342;2023-02-28T09:54:52;3.40;99.90
2851;DHT22;1433;49.976;8.342;2023-02-28T09:57:35;3.40;99.90
2851;DHT22;1433;49.976;8.342;2023-02-28T10:06:28;3.60;99.90
2851;DHT22;1433;49.976;8.342;2023-02-28T10:08:45;3.80;99.90
2851;DHT22;1433;49.976;8.342;2023-02-28T10:11:19;4.20;99.90
2851;DHT22;1433;49.976;8.342;2023-02-28T10:19:20;4.60;99.90
2851;DHT22;1433;49.976;8.342;2023-02-28T10:22:15;4.40;99.90
2851;DHT22;1433;49.976;8.342;2023-02-28T10:25:00;4.20;99.90
2851;DHT22;1433;49.976;8.342;2023-02-28T10:27:30;4.30;99.90
2851;DHT22;1433;49.976;8.342;2023-02-28T10:30:01;4.40;99.90
2851;DHT22;1433;49.976;8.342;2023-02-28T10:32:33;4.50;99.90
2851;DHT22;1433;49.976;8.342;2023-02-28T10:35:19;4.70;99.90
2851;DHT22;1433;49.976;8.342;2023-02-28T10:37:49;4.60;99.90
2851;DHT22;1433;49.976;8.342;2023-02-28T10:43:17;4.70;99.90
2851;DHT22;1433;49.976;8.342;2023-02-28T10:45:57;4.90;99.90
2851;DHT22;1433;49.976;8.342;2023-02-28T10:51:08;5.40;99.90
2851;DHT22;1433;49.976;8.342;2023-02-28T10:53:53;5.70;99.90
2851;DHT22;1433;49.976;8.342;2023-02-28T10:56:23;5.70;99.90
2851;DHT22;1433;49.976;8.342;2023-02-28T11:01:55;5.20;99.90
2851;DHT22;1433;49.976;8.342;2023-02-28T11:04:34;5.00;99.90
2851;DHT22;1433;49.976;8.342;2023-02-28T11:07:16;4.90;99.90
2851;DHT22;1433;49.976;8.342;2023-02-28T11:09:52;4.90;99.90
2851;DHT22;1433;49.976;8.342;2023-02-28T11:12:27;5.20;99.90
2851;DHT22;1433;49.976;8.342;2023-02-28T11:14:54;5.40;99.90
2851;DHT22;1433;49.976;8.342;2023-02-28T11:17:28;5.60;99.90
2851;DHT22;1433;49.976;8.342;2023-02-28T11:19:58;5.70;99.90
2851;DHT22;1433;49.976;8.342;2023-02-28T11:22:31;5.80;99.90
2851;DHT22;1433;49.976;8.342;2023-02-28T11:25:25;5.80;99.90
2851;DHT22;1433;49.976;8.342;2023-02-28T11:27:50;5.90;99.90
2851;DHT22;1433;49.976;8.342;2023-02-28T11:30:36;5.90;99.90
2851;DHT22;1433;49.976;8.342;2023-02-28T11:33:22;6.00;99.90
2851;DHT22;1433;49.976;8.342;2023-02-28T11:35:51;6.10;99.90
2851;DHT22;1433;49.976;8.342;2023-02-28T11:38:18;6.10;99.90
2851;DHT22;1433;49.976;8.342;2023-02-28T11:43:44;6.00;99.90
2851;DHT22;1433;49.976;8.342;2023-02-28T11:52:27;6.10;99.90
2851;DHT22;1433;49.976;8.342;2023-02-28T12:10:16;7.50;99.90
2851;DHT22;1433;49.976;8.342;2023-02-28T12:15:59;7.60;99.90
2851;DHT22;1433;49.976;8.342;2023-02-28T12:21:47;9.00;99.90
2851;DHT22;1433;49.976;8.342;2023-02-28T12:27:15;9.50;99.90
2851;DHT22;1433;49.976;8.342;2023-02-28T12:29:49;10.00;99.90
2851;DHT22;1433;49.976;8.342;2023-02-28T12:37:43;11.30;99.90
2851;DHT22;1433;49.976;8.342;2023-02-28T12:40:18;11.30;99.90
2851;DHT22;1433;49.976;8.342;2023-02-28T12:42:58;11.40;99.90
2851;DHT22;1433;49.976;8.342;2023-02-28T12:45:41;11.50;99.90
2851;DHT22;1433;49.976;8.342;2023-02-28T12:51:12;12.00;99.90
2851;DHT22;1433;49.976;8.342;2023-02-28T12:57:08;13.20;99.90
2851;DHT22;1433;49.976;8.342;2023-02-28T12:59:51;13.20;99.90
2851;DHT22;1433;49.976;8.342;2023-02-28T13:11:00;12.40;99.90
2851;DHT22;1433;49.976;8.342;2023-02-28T13:13:28;12.90;99.90
2851;DHT22;1433;49.976;8.342;2023-02-28T13:16:11;13.20;99.90
2851;DHT22;1433;49.976;8.342;2023-02-28T13:18:42;13.30;99.90
2851;DHT22;1433;49.976;8.342;2023-02-28T13:21:27;13.90;99.90
2851;DHT22;1433;49.976;8.342;2023-02-28T13:24:04;13.80;99.90
2851;DHT22;1433;49.976;8.342;2023-02-28T13:34:41;13.30;99.90
2851;DHT22;1433;49.976;8.342;2023-02-28T13:39:53;13.80;99.90
2851;DHT22;1433;49.976;8.342;2023-02-28T13:42:36;13.70;99.90
2851;DHT22;1433;49.976;8.342;2023-02-28T13:47:40;13.70;99.90
2851;DHT22;1433;49.976;8.342;2023-02-28T13:55:46;13.60;99.90
2851;DHT22;1433;49.976;8.342;2023-02-28T13:58:54;13.20;99.90
2851;DHT22;1433;49.976;8.342;2023-02-28T14:06:53;14.20;99.90
2851;DHT22;1433;49.976;8.342;2023-02-28T14:09:27;14.20;99.90
2851;DHT22;1433;49.976;8.342;2023-02-28T14:21:38;13.70;99.90
2851;DHT22;1433;49.976;8.342;2023-02-28T14:36:25;13.00;99.90
2851;DHT22;1433;49.976;8.342;2023-02-28T14:39:16;12.90;99.90
2851;DHT22;1433;49.976;8.342;2023-02-28T14:41:49;12.60;99.90
2851;DHT22;1433;49.976;8.342;2023-02-28T14:44:24;12.70;99.90
2851;DHT22;1433;49.976;8.342;2023-02-28T14:47:00;12.70;99.90
2851;DHT22;1433;49.976;8.342;2023-02-28T14:49:37;12.60;99.90
2851;DHT22;1433;49.976;8.342;2023-02-28T14:52:20;12.40;99.90
2851;DHT22;1433;49.976;8.342;2023-02-28T14:54:53;11.90;99.90
2851;DHT22;1433;49.976;8.342;2023-02-28T14:57:27;11.80;99.90
2851;DHT22;1433;49.976;8.342;2023-02-28T15:02:44;11.90;99.90
2851;DHT22;1433;49.976;8.342;2023-02-28T15:05:28;11.50;99.90
2851;DHT22;1433;49.976;8.342;2023-02-28T15:10:37;12.10;99.90
2851;DHT22;1433;49.976;8.342;2023-02-28T15:13:10;11.80;99.90
2851;DHT22;1433;49.976;8.342;2023-02-28T15:21:07;10.70;99.90
2851;DHT22;1433;49.976;8.342;2023-02-28T15:23:36;10.80;99.90
2851;DHT22;1433;49.976;8.342;2023-02-28T15:26:03;11.00;99.90
2851;DHT22;1433;49.976;8.342;2023-02-28T15:28:31;10.70;99.90
2851;DHT22;1433;49.976;8.342;2023-02-28T15:31:02;10.60;99.90
2851;DHT22;1433;49.976;8.342;2023-02-28T15:33:31;10.40;99.90
2851;DHT22;1433;49.976;8.342;2023-02-28T15:36:10;10.20;99.90
2851;DHT22;1433;49.976;8.342;2023-02-28T15:38:41;10.30;99.90
2851;DHT22;1433;49.976;8.342;2023-02-28T15:41:35;10.50;99.90
2851;DHT22;1433;49.976;8.342;2023-02-28T15:47:14;10.20;99.90
2851;DHT22;1433;49.976;8.342;2023-02-28T15:49:53;10.00;99.90
2851;DHT22;1433;49.976;8.342;2023-02-28T15:52:27;9.30;99.90
2851;DHT22;1433;49.976;8.342;2023-02-28T15:54:57;8.90;99.90
2851;DHT22;1433;49.976;8.342;2023-02-28T15:57:26;8.50;99.90
2851;DHT22;1433;49.976;8.342;2023-02-28T15:59:56;8.30;99.90
2851;DHT22;1433;49.976;8.342;2023-02-28T16:02:31;8.20;99.90
2851;DHT22;1433;49.976;8.342;2023-02-28T16:07:42;7.70;99.90
2851;DHT22;1433;49.976;8.342;2023-02-28T16:10:11;7.30;99.90
2851;DHT22;1433;49.976;8.342;2023-02-28T16:12:40;7.10;99.90
2851;DHT22;1433;49.976;8.342;2023-02-28T16:15:18;6.80;99.90
2851;DHT22;1433;49.976;8.342;2023-02-28T16:17:48;6.60;99.90
2851;DHT22;1433;49.976;8.342;2023-02-28T16:20:26;6.50;99.90
2851;DHT22;1433;49.976;8.342;2023-02-28T16:22:54;6.40;99.90
2851;DHT22;1433;49.976;8.342;2023-02-28T16:25:24;6.30;99.90
2851;DHT22;1433;49.976;8.342;2023-02-28T16:28:01;6.10;99.90
2851;DHT22;1433;49.976;8.342;2023-02-28T16:30:28;6.00;99.90
2851;DHT22;1433;49.976;8.342;2023-02-28T16:32:58;5.90;99.90
2851;DHT22;1433;49.976;8.342;2023-02-28T16:35:25;5.80;99.90
2851;DHT22;1433;49.976;8.342;2023-02-28T16:37:52;5.70;99.90
2851;DHT22;1433;49.976;8.342;2023-02-28T16:40:21;5.50;99.90
2851;DHT22;1433;49.976;8.342;2023-02-28T16:42:51;5.40;99.90
2851;DHT22;1433;49.976;8.342;2023-02-28T16:45:22;5.30;99.90
2851;DHT22;1433;49.976;8.342;2023-02-28T16:47:52;5.30;99.90
2851;DHT22;1433;49.976;8.342;2023-02-28T16:50:22;5.10;99.90
2851;DHT22;1433;49.976;8.342;2023-02-28T16:52:53;5.00;99.90
2851;DHT22;1433;49.976;8.342;2023-02-28T16:55:23;4.90;99.90
2851;DHT22;1433;49.976;8.342;2023-02-28T16:57:54;4.80;99.90
2851;DHT22;1433;49.976;8.342;2023-02-28T17:00:22;4.70;99.90
2851;DHT22;1433;49.976;8.342;2023-02-28T17:02:49;4.50;99.90
2851;DHT22;1433;49.976;8.342;2023-02-28T17:05:16;4.40;99.90
2851;DHT22;1433;49.976;8.342;2023-02-28T17:07:45;4.30;99.90
2851;DHT22;1433;49.976;8.342;2023-02-28T17:10:18;4.20;99.90
2851;DHT22;1433;49.976;8.342;2023-02-28T17:12:46;4.10;99.90
2851;DHT22;1433;49.976;8.342;2023-02-28T17:15:14;4.00;99.90
2851;DHT22;1433;49.976;8.342;2023-02-28T17:17:43;3.90;99.90
2851;DHT22;1433;49.976;8.342;2023-02-28T17:20:13;3.80;99.90
2851;DHT22;1433;49.976;8.342;2023-02-28T17:22:42;3.60;99.90
2851;DHT22;1433;49.976;8.342;2023-02-28T17:25:09;3.60;99.90
2851;DHT22;1433;49.976;8.342;2023-02-28T17:27:37;3.50;99.90
2851;DHT22;1433;49.976;8.342;2023-02-28T17:30:13;3.40;99.90
2851;DHT22;1433;49.976;8.342;2023-02-28T17:32:44;3.30;99.90
2851;DHT22;1433;49.976;8.342;2023-02-28T17:35:11;3.20;99.90
2851;DHT22;1433;49.976;8.342;2023-02-28T17:37:38;3.10;99.90
2851;DHT22;1433;49.976;8.342;2023-02-28T17:40:10;3.00;99.90
2851;DHT22;1433;49.976;8.342;2023-02-28T17:42:37;2.90;99.90
2851;DHT22;1433;49.976;8.342;2023-02-28T17:45:04;2.80;99.90
2851;DHT22;1433;49.976;8.342;2023-02-28T17:47:30;2.70;99.90
2851;DHT22;1433;49.976;8.342;2023-02-28T17:49:56;2.70;99.90
2851;DHT22;1433;49.976;8.342;2023-02-28T17:52:23;2.70;99.90
2851;DHT22;1433;49.976;8.342;2023-02-28T17:54:49;2.70;99.90
2851;DHT22;1433;49.976;8.342;2023-02-28T17:57:16;2.60;99.90
2851;DHT22;1433;49.976;8.342;2023-02-28T17:59:42;2.60;99.90
2851;DHT22;1433;49.976;8.342;2023-02-28T18:02:12;2.50;99.90
2851;DHT22;1433;49.976;8.342;2023-02-28T18:04:39;2.40;99.90
2851;DHT22;1433;49.976;8.342;2023-02-28T18:07:06;2.30;99.90
2851;DHT22;1433;49.976;8.342;2023-02-28T18:09:32;2.30;99.90
2851;DHT22;1433;49.976;8.342;2023-02-28T18:11:59;2.20;99.90
2851;DHT22;1433;49.976;8.342;2023-02-28T18:14:26;2.20;99.90
2851;DHT22;1433;49.976;8.342;2023-02-28T18:16:53;2.10;99.90
2851;DHT22;1433;49.976;8.342;2023-02-28T18:19:21;2.00;99.90
2851;DHT22;1433;49.976;8.342;2023-02-28T18:21:50;2.00;99.90
2851;DHT22;1433;49.976;8.342;2023-02-28T18:24:18;1.90;99.90
2851;DHT22;1433;49.976;8.342;2023-02-28T18:26:46;1.90;99.90
2851;DHT22;1433;49.976;8.342;2023-02-28T18:29:18;1.90;99.90
2851;DHT22;1433;49.976;8.342;2023-02-28T18:31:47;1.80;99.90
2851;DHT22;1433;49.976;8.342;2023-02-28T18:34:14;1.70;99.90
2851;DHT22;1433;49.976;8.342;2023-02-28T18:36:40;1.70;99.90
2851;DHT22;1433;49.976;8.342;2023-02-28T18:39:08;1.70;99.90
2851;DHT22;1433;49.976;8.342;2023-02-28T18:41:37;1.60;99.90
2851;DHT22;1433;49.976;8.342;2023-02-28T18:44:05;1.60;99.90
2851;DHT22;1433;49.976;8.342;2023-02-28T18:46:31;1.50;99.90
2851;DHT22;1433;49.976;8.342;2023-02-28T18:48:59;1.40;99.90
2851;DHT22;1433;49.976;8.342;2023-02-28T18:51:27;1.40;99.90
2851;DHT22;1433;49.976;8.342;2023-02-28T18:53:54;1.30;99.90
2851;DHT22;1433;49.976;8.342;2023-02-28T18:56:22;1.30;99.90
2851;DHT22;1433;49.976;8.342;2023-02-28T18:58:50;1.20;99.90
2851;DHT22;1433;49.976;8.342;2023-02-28T19:01:25;1.20;99.90
2851;DHT22;1433;49.976;8.342;2023-02-28T19:03:54;1.10;99.90
2851;DHT22;1433;49.976;8.342;2023-02-28T19:06:21;1.10;99.90
2851;DHT22;1433;49.976;8.342;2023-02-28T19:08:53;1.10;99.90
2851;DHT22;1433;49.976;8.342;2023-02-28T19:11:19;1.10;99.90
2851;DHT22;1433;49.976;8.342;2023-02-28T19:13:46;1.00;99.90